Detall de PIREP

Printer-friendly versionPDF version

[2014/10/05 09:08:00]
Flight IATA:CT3235
Pilot Number:012
Company ICAO:CAT
Aircraft Type:MD11/E
PAX:190
Aircraft Registration:PAX
Departing Airport: LFPG
Destination Airport: LEPA
Alternate Airport:LEBL
Online: VATSIM
Route:MONOT R161 NEV/N0480F250 A3 LAMUT/N0473F350 UM133 LAKOB UY27 PPG UP84 LORES LO1DCM
Flight Level:F350
No Slew and time accel
No pause
Crash detect
Detect pilot in Cockpit between each 30 and 45 minutes
09:08 Zero fuel Weight: 365638 Lbs, Fuel Weight: 51594 Lbs
09:08 VATSIM:LFPG 050900Z 01010KT 340V050 9999 FEW033 BKN046 11/08 Q1019 NOSIG
09:08 VATSIM:LEPA 050900Z 00000KT 9999 FEW020 FEW030CB 24/17 Q1017 TEMPO 4000 TSRA
09:08 FC BARCELONA CHAMPIONS CUP
09:13 Parking Brakes off
09:20 Take-off
09:20 Take off Weight: 415743 Lbs
09:20 Wind: 021º @ 010 Knots Heading: 084º
09:20 POS N48º 59´ 48´´ E002º 34´ 20´´
09:20 Gear Up: 190 Knots
09:20 Flaps:3 at 191 Knots
09:21 Flaps:2 at 199 Knots
09:21 Flaps:3 at 201 Knots
09:21 Flaps:2 at 203 Knots
09:21 Flaps:1 at 204 Knots
09:21 Flaps:0 at 205 Knots
09:21 Flaps:1 at 208 Knots
09:22 Flaps:0 at 213 Knots
09:32 TOC
09:32 Fuel Weight: 41732 Lb
09:35 Wind:291º@020 Knots Heading: 179º Ground Speed: 478 Knots Altitude 37155 ft
09:50 Wind:295º@027 Knots Heading: 179º Ground Speed: 488 Knots Altitude 37093 ft
10:05 Wind:294º@031 Knots Heading: 180º Ground Speed: 489 Knots Altitude 37175 ft
10:20 Wind:300º@026 Knots Heading: 186º Ground Speed: 490 Knots Altitude 37109 ft
10:21 TOD
10:21 Fuel Weight: 30391 Lb
10:35 Wind:300º@006 Knots Heading: 151º Ground Speed: 285 Knots Altitude 8717 ft
10:38 Flaps:1 at 234 Knots
10:39 Flaps:2 at 232 Knots
10:39 Gear Down: 231 Knots
10:39 Flaps:3 at 230 Knots
10:40 Flaps:4 at 224 Knots
10:40 Flaps:3 at 223 Knots
10:40 Flaps:4 at 222 Knots
10:40 Flaps:5 at 220 Knots
10:41 Flaps:6 at 212 Knots
10:41 Flaps:7 at 197 Knots
10:41 Flaps:6 at 195 Knots
10:41 Flaps:7 at 189 Knots
10:41 Flaps:6 at 190 Knots
10:41 Flaps:7 at 188 Knots
10:44 TouchDown:Rate -252 ft/min Speed: 158 Knots
10:45 VATSIM:LEPA 051030Z 13002KT 9999 -RA FEW022 FEW028CB SCT040 22/18 Q1017 TEMPO 4000 TSRA
10:45 Land
10:45 Wind:067º@002 Knots
10:45 Heading: 237º
10:45 Flight Duration: 01:25
10:45 Landing Weight: 392233 Lbs
10:45 POS N39º 32´ 45´´ E002º 44´ 30´´
10:48 Parking brakes on
10:48 Block to Block Duration: 01:35
10:48 Final Fuel: 26223 Lbls
10:48 Spent Fuel: 25370 Lbls
10:48 Flight Length: 606 NM
10:48 TOD Land Length: 131 NM

Exportar CSV

Powered by Drupal - Modified by Danger4k